sensor_id;sensor_type;location;lat;lon;timestamp;P1;durP1;ratioP1;P2;durP2;ratioP2
46721;SDS011;32455;43.430;23.136;2023-07-31T00:01:25;5.05;;;2.80;;
46721;SDS011;32455;43.430;23.136;2023-07-31T00:04:10;4.05;;;2.85;;
46721;SDS011;32455;43.430;23.136;2023-07-31T00:06:55;3.53;;;3.22;;
46721;SDS011;32455;43.430;23.136;2023-07-31T00:09:41;4.22;;;3.22;;
46721;SDS011;32455;43.430;23.136;2023-07-31T00:12:26;3.40;;;3.10;;
46721;SDS011;32455;43.430;23.136;2023-07-31T00:15:11;3.20;;;2.85;;
46721;SDS011;32455;43.430;23.136;2023-07-31T00:17:58;3.22;;;2.92;;
46721;SDS011;32455;43.430;23.136;2023-07-31T00:20:44;2.90;;;2.70;;
46721;SDS011;32455;43.430;23.136;2023-07-31T00:23:29;3.58;;;2.60;;
46721;SDS011;32455;43.430;23.136;2023-07-31T00:26:14;3.83;;;3.00;;
46721;SDS011;32455;43.430;23.136;2023-07-31T00:29:00;3.17;;;2.50;;
46721;SDS011;32455;43.430;23.136;2023-07-31T00:31:45;3.90;;;2.83;;
46721;SDS011;32455;43.430;23.136;2023-07-31T00:34:30;2.83;;;2.60;;
46721;SDS011;32455;43.430;23.136;2023-07-31T00:37:15;3.42;;;2.65;;
46721;SDS011;32455;43.430;23.136;2023-07-31T00:40:00;3.28;;;2.97;;
46721;SDS011;32455;43.430;23.136;2023-07-31T00:42:47;4.47;;;3.25;;
46721;SDS011;32455;43.430;23.136;2023-07-31T00:45:32;3.13;;;2.75;;
46721;SDS011;32455;43.430;23.136;2023-07-31T00:48:18;4.28;;;2.65;;
46721;SDS011;32455;43.430;23.136;2023-07-31T00:51:03;3.92;;;2.50;;
46721;SDS011;32455;43.430;23.136;2023-07-31T00:53:49;4.10;;;3.08;;
46721;SDS011;32455;43.430;23.136;2023-07-31T00:56:34;2.80;;;2.60;;
46721;SDS011;32455;43.430;23.136;2023-07-31T00:59:19;3.75;;;2.63;;
46721;SDS011;32455;43.430;23.136;2023-07-31T01:02:05;2.80;;;2.55;;
46721;SDS011;32455;43.430;23.136;2023-07-31T01:04:50;4.53;;;2.97;;
46721;SDS011;32455;43.430;23.136;2023-07-31T01:07:45;3.38;;;3.08;;
46721;SDS011;32455;43.430;23.136;2023-07-31T01:10:45;3.83;;;3.30;;
46721;SDS011;32455;43.430;23.136;2023-07-31T01:13:34;3.67;;;3.38;;
46721;SDS011;32455;43.430;23.136;2023-07-31T01:16:20;5.35;;;3.40;;
46721;SDS011;32455;43.430;23.136;2023-07-31T01:19:06;3.83;;;3.53;;
46721;SDS011;32455;43.430;23.136;2023-07-31T01:28:14;5.60;;;5.05;;
46721;SDS011;32455;43.430;23.136;2023-07-31T01:31:25;7.40;;;6.70;;
46721;SDS011;32455;43.430;23.136;2023-07-31T01:34:12;8.77;;;7.88;;
46721;SDS011;32455;43.430;23.136;2023-07-31T01:37:02;8.52;;;7.70;;
46721;SDS011;32455;43.430;23.136;2023-07-31T01:39:48;9.60;;;6.72;;
46721;SDS011;32455;43.430;23.136;2023-07-31T01:42:34;8.10;;;7.40;;
46721;SDS011;32455;43.430;23.136;2023-07-31T01:45:19;8.85;;;7.95;;
46721;SDS011;32455;43.430;23.136;2023-07-31T01:48:05;10.43;;;9.07;;
46721;SDS011;32455;43.430;23.136;2023-07-31T01:50:50;9.45;;;8.65;;
46721;SDS011;32455;43.430;23.136;2023-07-31T01:53:36;8.82;;;7.90;;
46721;SDS011;32455;43.430;23.136;2023-07-31T01:56:21;9.13;;;8.23;;
46721;SDS011;32455;43.430;23.136;2023-07-31T01:59:07;9.18;;;8.27;;
46721;SDS011;32455;43.430;23.136;2023-07-31T02:01:52;10.77;;;9.68;;
46721;SDS011;32455;43.430;23.136;2023-07-31T02:04:38;12.20;;;10.27;;
46721;SDS011;32455;43.430;23.136;2023-07-31T02:07:24;13.00;;;10.88;;
46721;SDS011;32455;43.430;23.136;2023-07-31T02:10:09;14.40;;;11.95;;
46721;SDS011;32455;43.430;23.136;2023-07-31T02:12:54;12.70;;;11.40;;
46721;SDS011;32455;43.430;23.136;2023-07-31T02:15:39;12.32;;;11.13;;
46721;SDS011;32455;43.430;23.136;2023-07-31T02:18:25;13.27;;;11.85;;
46721;SDS011;32455;43.430;23.136;2023-07-31T02:21:10;14.32;;;12.75;;
46721;SDS011;32455;43.430;23.136;2023-07-31T02:23:55;14.70;;;13.10;;
46721;SDS011;32455;43.430;23.136;2023-07-31T02:26:41;14.00;;;12.50;;
46721;SDS011;32455;43.430;23.136;2023-07-31T02:29:25;15.13;;;13.50;;
46721;SDS011;32455;43.430;23.136;2023-07-31T02:32:10;17.52;;;14.02;;
46721;SDS011;32455;43.430;23.136;2023-07-31T02:34:55;15.65;;;13.77;;
46721;SDS011;32455;43.430;23.136;2023-07-31T02:37:41;17.45;;;14.68;;
46721;SDS011;32455;43.430;23.136;2023-07-31T02:40:27;16.15;;;14.25;;
46721;SDS011;32455;43.430;23.136;2023-07-31T02:43:12;16.60;;;14.13;;
46721;SDS011;32455;43.430;23.136;2023-07-31T02:45:58;16.73;;;14.40;;
46721;SDS011;32455;43.430;23.136;2023-07-31T02:48:44;17.00;;;15.07;;
46721;SDS011;32455;43.430;23.136;2023-07-31T02:51:30;18.58;;;15.48;;
46721;SDS011;32455;43.430;23.136;2023-07-31T02:54:15;16.95;;;15.15;;
46721;SDS011;32455;43.430;23.136;2023-07-31T02:57:00;15.35;;;13.73;;
46721;SDS011;32455;43.430;23.136;2023-07-31T02:59:45;17.52;;;13.77;;
46721;SDS011;32455;43.430;23.136;2023-07-31T03:02:31;16.10;;;13.95;;
46721;SDS011;32455;43.430;23.136;2023-07-31T03:05:16;15.60;;;13.93;;
46721;SDS011;32455;43.430;23.136;2023-07-31T03:08:01;16.02;;;13.43;;
46721;SDS011;32455;43.430;23.136;2023-07-31T03:10:47;15.60;;;13.05;;
46721;SDS011;32455;43.430;23.136;2023-07-31T03:13:32;18.45;;;13.07;;
46721;SDS011;32455;43.430;23.136;2023-07-31T03:16:17;14.63;;;12.10;;
46721;SDS011;32455;43.430;23.136;2023-07-31T03:19:03;12.07;;;10.88;;
46721;SDS011;32455;43.430;23.136;2023-07-31T03:21:48;12.38;;;10.75;;
46721;SDS011;32455;43.430;23.136;2023-07-31T03:24:33;11.23;;;9.93;;
46721;SDS011;32455;43.430;23.136;2023-07-31T03:27:19;13.27;;;10.05;;
46721;SDS011;32455;43.430;23.136;2023-07-31T03:30:05;11.13;;;9.95;;
46721;SDS011;32455;43.430;23.136;2023-07-31T03:32:51;12.23;;;11.00;;
46721;SDS011;32455;43.430;23.136;2023-07-31T03:35:37;10.60;;;9.50;;
46721;SDS011;32455;43.430;23.136;2023-07-31T03:38:22;11.38;;;8.75;;
46721;SDS011;32455;43.430;23.136;2023-07-31T03:41:08;10.20;;;8.10;;
46721;SDS011;32455;43.430;23.136;2023-07-31T03:43:53;10.48;;;8.32;;
46721;SDS011;32455;43.430;23.136;2023-07-31T03:46:40;8.57;;;7.75;;
46721;SDS011;32455;43.430;23.136;2023-07-31T03:49:25;9.25;;;8.30;;
46721;SDS011;32455;43.430;23.136;2023-07-31T03:52:11;8.48;;;7.57;;
46721;SDS011;32455;43.430;23.136;2023-07-31T03:54:56;7.97;;;7.05;;
46721;SDS011;32455;43.430;23.136;2023-07-31T03:57:41;7.63;;;6.38;;
46721;SDS011;32455;43.430;23.136;2023-07-31T04:00:27;7.97;;;7.18;;
46721;SDS011;32455;43.430;23.136;2023-07-31T04:03:12;8.38;;;6.97;;
46721;SDS011;32455;43.430;23.136;2023-07-31T04:05:58;7.32;;;6.57;;
46721;SDS011;32455;43.430;23.136;2023-07-31T04:08:43;10.35;;;6.38;;
46721;SDS011;32455;43.430;23.136;2023-07-31T04:11:28;7.05;;;6.35;;
46721;SDS011;32455;43.430;23.136;2023-07-31T04:14:14;6.55;;;5.95;;
46721;SDS011;32455;43.430;23.136;2023-07-31T04:16:59;6.43;;;5.78;;
46721;SDS011;32455;43.430;23.136;2023-07-31T04:19:44;8.80;;;6.05;;
46721;SDS011;32455;43.430;23.136;2023-07-31T04:22:29;7.20;;;6.10;;
46721;SDS011;32455;43.430;23.136;2023-07-31T04:25:15;6.53;;;5.82;;
46721;SDS011;32455;43.430;23.136;2023-07-31T04:28:00;5.95;;;5.45;;
46721;SDS011;32455;43.430;23.136;2023-07-31T04:30:46;6.78;;;6.07;;
46721;SDS011;32455;43.430;23.136;2023-07-31T04:33:32;6.75;;;6.15;;
46721;SDS011;32455;43.430;23.136;2023-07-31T04:36:17;6.88;;;5.25;;
46721;SDS011;32455;43.430;23.136;2023-07-31T04:39:03;5.82;;;4.65;;
46721;SDS011;32455;43.430;23.136;2023-07-31T04:41:48;6.43;;;4.72;;
46721;SDS011;32455;43.430;23.136;2023-07-31T04:44:34;3.83;;;3.53;;
46721;SDS011;32455;43.430;23.136;2023-07-31T04:47:20;5.10;;;3.95;;
46721;SDS011;32455;43.430;23.136;2023-07-31T04:50:06;4.30;;;3.90;;
46721;SDS011;32455;43.430;23.136;2023-07-31T04:52:51;3.83;;;3.53;;
46721;SDS011;32455;43.430;23.136;2023-07-31T04:55:50;3.83;;;3.53;;
46721;SDS011;32455;43.430;23.136;2023-07-31T04:58:35;4.25;;;3.30;;
46721;SDS011;32455;43.430;23.136;2023-07-31T05:01:20;3.10;;;2.80;;
46721;SDS011;32455;43.430;23.136;2023-07-31T05:04:06;3.00;;;2.80;;
46721;SDS011;32455;43.430;23.136;2023-07-31T05:06:52;2.92;;;2.72;;
46721;SDS011;32455;43.430;23.136;2023-07-31T05:09:38;4.43;;;3.10;;
46721;SDS011;32455;43.430;23.136;2023-07-31T05:12:24;3.38;;;2.78;;
46721;SDS011;32455;43.430;23.136;2023-07-31T05:15:09;5.85;;;2.83;;
46721;SDS011;32455;43.430;23.136;2023-07-31T05:17:54;3.78;;;2.72;;
46721;SDS011;32455;43.430;23.136;2023-07-31T05:20:40;2.60;;;2.40;;
46721;SDS011;32455;43.430;23.136;2023-07-31T05:23:26;4.32;;;2.40;;
46721;SDS011;32455;43.430;23.136;2023-07-31T05:26:11;5.22;;;2.50;;
46721;SDS011;32455;43.430;23.136;2023-07-31T05:28:56;2.65;;;2.45;;
46721;SDS011;32455;43.430;23.136;2023-07-31T05:31:49;2.58;;;2.38;;
46721;SDS011;32455;43.430;23.136;2023-07-31T05:34:35;16.48;;;2.60;;
46721;SDS011;32455;43.430;23.136;2023-07-31T05:37:21;2.75;;;2.20;;
46721;SDS011;32455;43.430;23.136;2023-07-31T05:40:07;2.90;;;2.20;;
46721;SDS011;32455;43.430;23.136;2023-07-31T05:42:52;3.42;;;1.90;;
46721;SDS011;32455;43.430;23.136;2023-07-31T05:45:38;2.42;;;2.20;;
46721;SDS011;32455;43.430;23.136;2023-07-31T05:48:25;3.33;;;2.30;;
46721;SDS011;32455;43.430;23.136;2023-07-31T05:51:10;2.28;;;2.08;;
46721;SDS011;32455;43.430;23.136;2023-07-31T05:53:55;2.63;;;2.10;;
46721;SDS011;32455;43.430;23.136;2023-07-31T05:56:41;3.10;;;2.13;;
46721;SDS011;32455;43.430;23.136;2023-07-31T05:59:26;3.92;;;2.08;;
46721;SDS011;32455;43.430;23.136;2023-07-31T06:02:12;2.30;;;2.10;;
46721;SDS011;32455;43.430;23.136;2023-07-31T06:04:57;1.98;;;1.75;;
46721;SDS011;32455;43.430;23.136;2023-07-31T06:07:42;2.25;;;2.05;;
46721;SDS011;32455;43.430;23.136;2023-07-31T06:10:27;2.38;;;2.10;;
46721;SDS011;32455;43.430;23.136;2023-07-31T06:13:15;1.88;;;1.77;;
46721;SDS011;32455;43.430;23.136;2023-07-31T06:16:00;2.00;;;1.83;;
46721;SDS011;32455;43.430;23.136;2023-07-31T06:18:50;2.15;;;1.83;;
46721;SDS011;32455;43.430;23.136;2023-07-31T06:21:35;2.78;;;1.70;;
46721;SDS011;32455;43.430;23.136;2023-07-31T06:24:29;1.98;;;1.85;;
46721;SDS011;32455;43.430;23.136;2023-07-31T06:27:14;1.88;;;1.67;;
46721;SDS011;32455;43.430;23.136;2023-07-31T06:30:00;1.90;;;1.80;;
46721;SDS011;32455;43.430;23.136;2023-07-31T06:32:45;2.72;;;1.70;;
46721;SDS011;32455;43.430;23.136;2023-07-31T06:35:30;1.65;;;1.55;;
46721;SDS011;32455;43.430;23.136;2023-07-31T06:38:18;1.75;;;1.65;;
46721;SDS011;32455;43.430;23.136;2023-07-31T06:41:12;2.30;;;2.10;;
46721;SDS011;32455;43.430;23.136;2023-07-31T06:43:57;1.90;;;1.80;;
46721;SDS011;32455;43.430;23.136;2023-07-31T06:46:42;1.88;;;1.67;;
46721;SDS011;32455;43.430;23.136;2023-07-31T06:49:31;2.08;;;1.80;;
46721;SDS011;32455;43.430;23.136;2023-07-31T06:52:17;1.95;;;1.85;;
46721;SDS011;32455;43.430;23.136;2023-07-31T06:55:03;2.08;;;1.70;;
46721;SDS011;32455;43.430;23.136;2023-07-31T06:58:03;2.72;;;2.10;;
46721;SDS011;32455;43.430;23.136;2023-07-31T07:00:48;1.98;;;1.88;;
46721;SDS011;32455;43.430;23.136;2023-07-31T07:03:34;2.38;;;1.92;;
46721;SDS011;32455;43.430;23.136;2023-07-31T07:06:22;2.83;;;2.30;;
46721;SDS011;32455;43.430;23.136;2023-07-31T07:09:07;3.22;;;2.40;;
46721;SDS011;32455;43.430;23.136;2023-07-31T07:11:53;2.17;;;2.00;;
46721;SDS011;32455;43.430;23.136;2023-07-31T07:14:38;2.40;;;2.10;;
46721;SDS011;32455;43.430;23.136;2023-07-31T07:17:24;2.70;;;2.13;;
46721;SDS011;32455;43.430;23.136;2023-07-31T07:20:09;2.83;;;2.30;;
46721;SDS011;32455;43.430;23.136;2023-07-31T07:22:55;2.50;;;2.30;;
46721;SDS011;32455;43.430;23.136;2023-07-31T07:25:41;2.53;;;2.13;;
46721;SDS011;32455;43.430;23.136;2023-07-31T07:28:27;2.97;;;2.20;;
46721;SDS011;32455;43.430;23.136;2023-07-31T07:31:13;2.75;;;2.20;;
46721;SDS011;32455;43.430;23.136;2023-07-31T07:33:58;2.70;;;2.20;;
46721;SDS011;32455;43.430;23.136;2023-07-31T07:36:43;2.50;;;2.30;;
46721;SDS011;32455;43.430;23.136;2023-07-31T07:39:29;2.35;;;2.15;;
46721;SDS011;32455;43.430;23.136;2023-07-31T07:42:15;2.75;;;2.55;;
46721;SDS011;32455;43.430;23.136;2023-07-31T07:45:04;2.45;;;2.25;;
46721;SDS011;32455;43.430;23.136;2023-07-31T07:47:50;3.05;;;2.50;;
46721;SDS011;32455;43.430;23.136;2023-07-31T07:50:37;2.80;;;2.60;;
46721;SDS011;32455;43.430;23.136;2023-07-31T07:53:23;2.78;;;2.22;;
46721;SDS011;32455;43.430;23.136;2023-07-31T07:56:08;4.80;;;2.92;;
46721;SDS011;32455;43.430;23.136;2023-07-31T07:58:54;2.78;;;2.35;;
46721;SDS011;32455;43.430;23.136;2023-07-31T08:01:40;2.72;;;2.40;;
46721;SDS011;32455;43.430;23.136;2023-07-31T08:04:25;2.55;;;2.08;;
46721;SDS011;32455;43.430;23.136;2023-07-31T08:07:13;3.95;;;2.50;;
46721;SDS011;32455;43.430;23.136;2023-07-31T08:09:59;2.20;;;2.00;;
46721;SDS011;32455;43.430;23.136;2023-07-31T08:12:45;2.90;;;2.05;;
46721;SDS011;32455;43.430;23.136;2023-07-31T08:15:30;2.33;;;1.92;;
46721;SDS011;32455;43.430;23.136;2023-07-31T08:18:16;2.00;;;1.85;;
46721;SDS011;32455;43.430;23.136;2023-07-31T08:21:04;2.50;;;2.30;;
46721;SDS011;32455;43.430;23.136;2023-07-31T08:23:49;4.25;;;2.40;;
46721;SDS011;32455;43.430;23.136;2023-07-31T08:26:34;3.88;;;2.03;;
46721;SDS011;32455;43.430;23.136;2023-07-31T08:29:19;2.53;;;2.10;;
46721;SDS011;32455;43.430;23.136;2023-07-31T08:32:04;2.40;;;2.20;;
46721;SDS011;32455;43.430;23.136;2023-07-31T08:34:50;3.67;;;2.00;;
46721;SDS011;32455;43.430;23.136;2023-07-31T08:37:35;1.83;;;1.73;;
46721;SDS011;32455;43.430;23.136;2023-07-31T08:40:22;5.63;;;2.25;;
46721;SDS011;32455;43.430;23.136;2023-07-31T08:43:08;2.25;;;1.98;;
46721;SDS011;32455;43.430;23.136;2023-07-31T08:45:54;2.20;;;2.03;;
46721;SDS011;32455;43.430;23.136;2023-07-31T08:48:41;4.70;;;2.25;;
46721;SDS011;32455;43.430;23.136;2023-07-31T08:51:27;2.78;;;2.10;;
46721;SDS011;32455;43.430;23.136;2023-07-31T08:54:12;1.98;;;1.77;;
46721;SDS011;32455;43.430;23.136;2023-07-31T08:57:00;3.38;;;2.38;;
46721;SDS011;32455;43.430;23.136;2023-07-31T08:59:46;2.53;;;2.33;;
46721;SDS011;32455;43.430;23.136;2023-07-31T09:05:29;5.65;;;2.50;;
46721;SDS011;32455;43.430;23.136;2023-07-31T09:08:19;2.72;;;2.30;;
46721;SDS011;32455;43.430;23.136;2023-07-31T09:11:06;3.30;;;2.00;;
46721;SDS011;32455;43.430;23.136;2023-07-31T09:13:52;2.28;;;1.95;;
46721;SDS011;32455;43.430;23.136;2023-07-31T09:16:51;2.90;;;1.70;;
46721;SDS011;32455;43.430;23.136;2023-07-31T09:19:38;1.80;;;1.70;;
46721;SDS011;32455;43.430;23.136;2023-07-31T09:22:34;1.70;;;1.60;;
46721;SDS011;32455;43.430;23.136;2023-07-31T09:25:23;4.07;;;1.70;;
46721;SDS011;32455;43.430;23.136;2023-07-31T09:28:14;2.83;;;1.40;;
46721;SDS011;32455;43.430;23.136;2023-07-31T09:30:59;2.55;;;1.75;;
46721;SDS011;32455;43.430;23.136;2023-07-31T09:34:02;2.30;;;1.60;;
46721;SDS011;32455;43.430;23.136;2023-07-31T09:36:49;1.85;;;1.73;;
46721;SDS011;32455;43.430;23.136;2023-07-31T09:39:47;4.93;;;1.70;;
46721;SDS011;32455;43.430;23.136;2023-07-31T09:42:33;1.60;;;1.50;;
46721;SDS011;32455;43.430;23.136;2023-07-31T09:45:19;1.75;;;1.50;;
46721;SDS011;32455;43.430;23.136;2023-07-31T09:48:08;1.70;;;1.60;;
46721;SDS011;32455;43.430;23.136;2023-07-31T09:50:55;2.67;;;1.35;;
46721;SDS011;32455;43.430;23.136;2023-07-31T09:53:41;1.60;;;1.50;;
46721;SDS011;32455;43.430;23.136;2023-07-31T09:56:35;1.40;;;1.30;;
46721;SDS011;32455;43.430;23.136;2023-07-31T09:59:21;1.88;;;1.38;;
46721;SDS011;32455;43.430;23.136;2023-07-31T10:02:08;1.75;;;1.45;;
46721;SDS011;32455;43.430;23.136;2023-07-31T10:04:59;1.60;;;1.50;;
46721;SDS011;32455;43.430;23.136;2023-07-31T10:07:52;1.60;;;1.50;;
46721;SDS011;32455;43.430;23.136;2023-07-31T10:10:43;4.80;;;1.67;;
46721;SDS011;32455;43.430;23.136;2023-07-31T10:13:30;3.05;;;1.63;;
46721;SDS011;32455;43.430;23.136;2023-07-31T10:16:17;1.80;;;1.70;;
46721;SDS011;32455;43.430;23.136;2023-07-31T10:19:03;2.20;;;1.77;;
46721;SDS011;32455;43.430;23.136;2023-07-31T10:21:49;2.50;;;1.30;;
46721;SDS011;32455;43.430;23.136;2023-07-31T10:24:35;1.75;;;1.40;;
46721;SDS011;32455;43.430;23.136;2023-07-31T10:27:22;1.95;;;1.58;;
46721;SDS011;32455;43.430;23.136;2023-07-31T10:30:14;1.65;;;1.27;;
46721;SDS011;32455;43.430;23.136;2023-07-31T10:33:01;2.65;;;1.30;;
46721;SDS011;32455;43.430;23.136;2023-07-31T10:35:48;1.60;;;1.30;;
46721;SDS011;32455;43.430;23.136;2023-07-31T10:38:33;1.90;;;1.30;;
46721;SDS011;32455;43.430;23.136;2023-07-31T10:41:19;2.22;;;1.20;;
46721;SDS011;32455;43.430;23.136;2023-07-31T10:44:04;1.30;;;1.10;;
46721;SDS011;32455;43.430;23.136;2023-07-31T10:46:54;1.42;;;1.33;;
46721;SDS011;32455;43.430;23.136;2023-07-31T10:49:40;2.28;;;1.10;;
46721;SDS011;32455;43.430;23.136;2023-07-31T10:52:25;1.77;;;1.67;;
46721;SDS011;32455;43.430;23.136;2023-07-31T10:58:28;2.00;;;1.80;;
46721;SDS011;32455;43.430;23.136;2023-07-31T11:01:13;1.92;;;1.67;;
46721;SDS011;32455;43.430;23.136;2023-07-31T11:03:59;1.77;;;1.50;;
46721;SDS011;32455;43.430;23.136;2023-07-31T11:06:54;4.30;;;1.90;;
46721;SDS011;32455;43.430;23.136;2023-07-31T11:09:42;2.70;;;1.85;;
46721;SDS011;32455;43.430;23.136;2023-07-31T11:12:29;2.25;;;2.03;;
46721;SDS011;32455;43.430;23.136;2023-07-31T11:15:14;2.35;;;2.13;;
46721;SDS011;32455;43.430;23.136;2023-07-31T11:18:03;1.90;;;1.80;;
46721;SDS011;32455;43.430;23.136;2023-07-31T11:20:54;2.22;;;2.03;;
46721;SDS011;32455;43.430;23.136;2023-07-31T11:23:40;1.55;;;1.45;;
46721;SDS011;32455;43.430;23.136;2023-07-31T11:26:25;1.80;;;1.70;;
46721;SDS011;32455;43.430;23.136;2023-07-31T11:29:12;1.98;;;1.88;;
46721;SDS011;32455;43.430;23.136;2023-07-31T11:31:59;4.90;;;2.17;;
46721;SDS011;32455;43.430;23.136;2023-07-31T11:34:53;2.47;;;1.52;;
46721;SDS011;32455;43.430;23.136;2023-07-31T11:37:40;2.85;;;1.70;;
46721;SDS011;32455;43.430;23.136;2023-07-31T11:40:26;2.13;;;1.92;;
46721;SDS011;32455;43.430;23.136;2023-07-31T11:43:14;3.45;;;2.10;;
46721;SDS011;32455;43.430;23.136;2023-07-31T11:46:02;2.30;;;2.00;;
46721;SDS011;32455;43.430;23.136;2023-07-31T11:48:51;2.25;;;2.05;;
46721;SDS011;32455;43.430;23.136;2023-07-31T11:51:37;2.72;;;2.53;;
46721;SDS011;32455;43.430;23.136;2023-07-31T11:54:26;2.65;;;2.40;;
46721;SDS011;32455;43.430;23.136;2023-07-31T11:57:15;3.03;;;2.70;;
46721;SDS011;32455;43.430;23.136;2023-07-31T12:00:01;2.53;;;2.33;;
46721;SDS011;32455;43.430;23.136;2023-07-31T12:02:48;3.13;;;2.22;;
46721;SDS011;32455;43.430;23.136;2023-07-31T12:05:33;3.08;;;2.50;;
46721;SDS011;32455;43.430;23.136;2023-07-31T12:08:26;3.90;;;2.63;;
46721;SDS011;32455;43.430;23.136;2023-07-31T12:11:12;3.15;;;2.80;;
46721;SDS011;32455;43.430;23.136;2023-07-31T12:14:03;3.65;;;3.08;;
46721;SDS011;32455;43.430;23.136;2023-07-31T12:16:58;3.20;;;3.00;;
46721;SDS011;32455;43.430;23.136;2023-07-31T12:19:48;3.67;;;2.78;;
46721;SDS011;32455;43.430;23.136;2023-07-31T12:22:34;2.90;;;2.70;;
46721;SDS011;32455;43.430;23.136;2023-07-31T12:25:20;3.35;;;3.00;;
46721;SDS011;32455;43.430;23.136;2023-07-31T12:28:06;2.60;;;2.30;;
46721;SDS011;32455;43.430;23.136;2023-07-31T12:30:59;3.42;;;2.65;;
46721;SDS011;32455;43.430;23.136;2023-07-31T12:33:46;2.92;;;2.72;;
46721;SDS011;32455;43.430;23.136;2023-07-31T12:36:36;3.70;;;2.35;;
46721;SDS011;32455;43.430;23.136;2023-07-31T12:39:21;2.65;;;2.45;;
46721;SDS011;32455;43.430;23.136;2023-07-31T12:42:06;2.40;;;2.20;;
46721;SDS011;32455;43.430;23.136;2023-07-31T12:44:51;3.38;;;2.60;;
46721;SDS011;32455;43.430;23.136;2023-07-31T12:47:36;2.53;;;2.33;;
46721;SDS011;32455;43.430;23.136;2023-07-31T12:50:21;3.97;;;2.33;;
46721;SDS011;32455;43.430;23.136;2023-07-31T12:53:08;3.47;;;2.65;;
46721;SDS011;32455;43.430;23.136;2023-07-31T12:55:54;2.28;;;2.08;;
46721;SDS011;32455;43.430;23.136;2023-07-31T12:58:40;2.05;;;1.92;;
46721;SDS011;32455;43.430;23.136;2023-07-31T13:01:25;2.00;;;1.90;;
46721;SDS011;32455;43.430;23.136;2023-07-31T13:04:11;2.10;;;2.00;;
46721;SDS011;32455;43.430;23.136;2023-07-31T13:07:00;2.00;;;1.90;;
46721;SDS011;32455;43.430;23.136;2023-07-31T13:09:46;3.17;;;1.90;;
46721;SDS011;32455;43.430;23.136;2023-07-31T13:12:32;4.78;;;2.28;;
46721;SDS011;32455;43.430;23.136;2023-07-31T13:15:18;2.95;;;2.00;;
46721;SDS011;32455;43.430;23.136;2023-07-31T13:18:03;2.88;;;1.88;;
46721;SDS011;32455;43.430;23.136;2023-07-31T13:20:49;1.77;;;1.67;;
46721;SDS011;32455;43.430;23.136;2023-07-31T13:23:34;1.98;;;1.88;;
46721;SDS011;32455;43.430;23.136;2023-07-31T13:26:20;2.03;;;1.77;;
46721;SDS011;32455;43.430;23.136;2023-07-31T13:29:05;2.65;;;2.22;;
46721;SDS011;32455;43.430;23.136;2023-07-31T13:31:51;2.17;;;1.98;;
46721;SDS011;32455;43.430;23.136;2023-07-31T13:34:37;2.00;;;1.90;;
46721;SDS011;32455;43.430;23.136;2023-07-31T13:37:23;1.73;;;1.45;;
46721;SDS011;32455;43.430;23.136;2023-07-31T13:40:09;2.20;;;2.00;;
46721;SDS011;32455;43.430;23.136;2023-07-31T13:42:54;2.08;;;1.85;;
46721;SDS011;32455;43.430;23.136;2023-07-31T13:45:42;1.98;;;1.88;;
46721;SDS011;32455;43.430;23.136;2023-07-31T13:48:27;2.25;;;1.80;;
46721;SDS011;32455;43.430;23.136;2023-07-31T13:51:13;3.42;;;2.00;;
46721;SDS011;32455;43.430;23.136;2023-07-31T13:53:58;2.15;;;1.95;;
46721;SDS011;32455;43.430;23.136;2023-07-31T13:56:45;6.28;;;2.10;;
46721;SDS011;32455;43.430;23.136;2023-07-31T13:59:30;2.45;;;1.88;;
46721;SDS011;32455;43.430;23.136;2023-07-31T14:02:16;2.00;;;1.80;;
46721;SDS011;32455;43.430;23.136;2023-07-31T14:05:01;1.90;;;1.80;;
46721;SDS011;32455;43.430;23.136;2023-07-31T14:07:47;4.30;;;2.03;;
46721;SDS011;32455;43.430;23.136;2023-07-31T14:10:33;2.85;;;1.90;;
46721;SDS011;32455;43.430;23.136;2023-07-31T14:13:18;2.13;;;2.00;;
46721;SDS011;32455;43.430;23.136;2023-07-31T14:16:04;2.42;;;1.95;;
46721;SDS011;32455;43.430;23.136;2023-07-31T14:18:49;2.92;;;2.25;;
46721;SDS011;32455;43.430;23.136;2023-07-31T14:21:35;2.17;;;1.88;;
46721;SDS011;32455;43.430;23.136;2023-07-31T14:24:20;2.30;;;2.10;;
46721;SDS011;32455;43.430;23.136;2023-07-31T14:27:05;2.28;;;2.05;;
46721;SDS011;32455;43.430;23.136;2023-07-31T14:29:50;2.70;;;2.50;;
46721;SDS011;32455;43.430;23.136;2023-07-31T14:32:35;2.45;;;2.25;;
46721;SDS011;32455;43.430;23.136;2023-07-31T14:35:21;3.08;;;2.50;;
46721;SDS011;32455;43.430;23.136;2023-07-31T14:38:08;2.20;;;2.00;;
46721;SDS011;32455;43.430;23.136;2023-07-31T14:40:53;2.00;;;1.90;;
46721;SDS011;32455;43.430;23.136;2023-07-31T14:43:38;2.20;;;1.70;;
46721;SDS011;32455;43.430;23.136;2023-07-31T14:46:24;1.88;;;1.75;;
46721;SDS011;32455;43.430;23.136;2023-07-31T14:49:09;3.35;;;1.73;;
46721;SDS011;32455;43.430;23.136;2023-07-31T14:51:54;1.98;;;1.77;;
46721;SDS011;32455;43.430;23.136;2023-07-31T14:54:40;1.98;;;1.77;;
46721;SDS011;32455;43.430;23.136;2023-07-31T14:57:25;2.22;;;1.63;;
46721;SDS011;32455;43.430;23.136;2023-07-31T15:00:11;2.47;;;1.92;;
46721;SDS011;32455;43.430;23.136;2023-07-31T15:02:56;4.95;;;2.20;;
46721;SDS011;32455;43.430;23.136;2023-07-31T15:05:42;3.38;;;1.95;;
46721;SDS011;32455;43.430;23.136;2023-07-31T15:08:28;3.35;;;2.30;;
46721;SDS011;32455;43.430;23.136;2023-07-31T15:11:13;4.15;;;1.95;;
46721;SDS011;32455;43.430;23.136;2023-07-31T15:14:00;2.05;;;1.85;;
46721;SDS011;32455;43.430;23.136;2023-07-31T15:16:45;3.03;;;2.30;;
46721;SDS011;32455;43.430;23.136;2023-07-31T15:19:31;3.08;;;1.95;;
46721;SDS011;32455;43.430;23.136;2023-07-31T15:22:19;3.03;;;1.92;;
46721;SDS011;32455;43.430;23.136;2023-07-31T15:25:05;2.20;;;2.00;;
46721;SDS011;32455;43.430;23.136;2023-07-31T15:27:51;2.90;;;1.80;;
46721;SDS011;32455;43.430;23.136;2023-07-31T15:30:37;2.22;;;1.80;;
46721;SDS011;32455;43.430;23.136;2023-07-31T15:33:22;2.20;;;1.98;;
46721;SDS011;32455;43.430;23.136;2023-07-31T15:36:07;2.47;;;2.28;;
46721;SDS011;32455;43.430;23.136;2023-07-31T15:38:53;4.03;;;2.25;;
46721;SDS011;32455;43.430;23.136;2023-07-31T15:41:42;2.92;;;2.00;;
46721;SDS011;32455;43.430;23.136;2023-07-31T15:44:27;2.95;;;1.73;;
46721;SDS011;32455;43.430;23.136;2023-07-31T15:47:12;2.15;;;1.90;;
46721;SDS011;32455;43.430;23.136;2023-07-31T15:50:00;3.50;;;2.00;;
46721;SDS011;32455;43.430;23.136;2023-07-31T15:52:45;2.05;;;1.90;;
46721;SDS011;32455;43.430;23.136;2023-07-31T15:55:30;1.60;;;1.50;;
46721;SDS011;32455;43.430;23.136;2023-07-31T15:58:16;1.60;;;1.50;;
46721;SDS011;32455;43.430;23.136;2023-07-31T16:01:01;2.20;;;1.95;;
46721;SDS011;32455;43.430;23.136;2023-07-31T16:03:47;4.88;;;2.00;;
46721;SDS011;32455;43.430;23.136;2023-07-31T16:06:32;2.35;;;2.15;;
46721;SDS011;32455;43.430;23.136;2023-07-31T16:09:17;2.38;;;2.10;;
46721;SDS011;32455;43.430;23.136;2023-07-31T16:12:01;3.95;;;2.15;;
46721;SDS011;32455;43.430;23.136;2023-07-31T16:14:46;2.85;;;2.20;;
46721;SDS011;32455;43.430;23.136;2023-07-31T16:17:32;2.22;;;1.98;;
46721;SDS011;32455;43.430;23.136;2023-07-31T16:20:17;3.88;;;2.20;;
46721;SDS011;32455;43.430;23.136;2023-07-31T16:23:02;2.50;;;2.30;;
46721;SDS011;32455;43.430;23.136;2023-07-31T16:25:48;2.33;;;2.22;;
46721;SDS011;32455;43.430;23.136;2023-07-31T16:28:33;3.72;;;2.17;;
46721;SDS011;32455;43.430;23.136;2023-07-31T16:31:19;4.45;;;2.22;;
46721;SDS011;32455;43.430;23.136;2023-07-31T16:34:05;4.07;;;2.50;;
46721;SDS011;32455;43.430;23.136;2023-07-31T16:36:50;4.63;;;2.25;;